Sargents, Colorado
Current Conditions -  °F | °C
As of 2:38 AM on Saturday 25 Oct 2014 (Local Time) from KMYP Reporting Station
Clear Clear  
Wind Chill: 29°   Ceiling: Unl
Heat Index: 39°   Visibility: 10mi
Dew Point:   Wind: 22mph
Humidity: 28%   Direction: 270°W
Pressure: 30.74"   Gusts: NA
Location:  38.4°N, 106.42°W
Report Text: KMYP 250838Z AUTO 27019KT 10SM CLR 04/M13 A3074 RMK AO2
Loading
Personal Weather Stations






























Interactive Weather Map
Tropical Storm Tracking
New forecast layout! Learn more

10-Day Weather Forecast

Advertisements
Track Severe Weather on mobile